This is the latest recevied weather packets stored in our database for station/object DB8NZ-11. If no packets are shown the sender has not sent any weather packets the latest 10 day(s).
| Time | Temp. | Humidity | Pressure | Rain* | Wind** | Luminosity | Snow |
|---|---|---|---|---|---|---|---|
| 1777884255 | 27.78° C | 28% | 1019.4 hPa | - | - | - | - |
| 1777883747 | 28.33° C | 26% | 1019.5 hPa | - | - | - | - |
| 1777882847 | 27.78° C | 27% | 1019.6 hPa | - | - | - | - |
| 1777881946 | 26.11° C | 30% | 1019.5 hPa | - | - | - | - |
| 1777881046 | 28.89° C | 27% | 1019.7 hPa | - | - | - | - |
| 1777880145 | 27.78° C | 28% | 1019.7 hPa | - | - | - | - |
| 1777879245 | 25° C | 34% | 1019.7 hPa | - | - | - | - |
| 1777878345 | 20.56° C | 41% | 1019.8 hPa | - | - | - | - |
| 1777877445 | 18.89° C | 44% | 1019.9 hPa | - | - | - | - |
| 1777876545 | 17.78° C | 47% | 1019.9 hPa | - | - | - | - |
| 1777875645 | 16.67° C | 51% | 1019.9 hPa | - | - | - | - |
| 1777874745 | 15.56° C | 54% | 1019.9 hPa | - | - | - | - |
| 1777873845 | 14.44° C | 57% | 1020 hPa | - | - | - | - |
| 1777872945 | 12.78° C | 65% | 1020 hPa | - | - | - | - |
| 1777872044 | 12.22° C | 67% | 1019.9 hPa | - | - | - | - |
| 1777871144 | 11.11° C | 69% | 1019.9 hPa | - | - | - | - |
| 1777870244 | 11.11° C | 69% | 1019.7 hPa | - | - | - | - |
| 1777869344 | 11.11° C | 66% | 1019.7 hPa | - | - | - | - |
| 1777868444 | 11.11° C | 67% | 1019.6 hPa | - | - | - | - |
| 1777867544 | 11.11° C | 66% | 1019.4 hPa | - | - | - | - |
| 1777866644 | 11.11° C | 66% | 1019.6 hPa | - | - | - | - |
| 1777865744 | 11.67° C | 64% | 1019.5 hPa | - | - | - | - |
| 1777864844 | 11.67° C | 63% | 1019.5 hPa | - | - | - | - |
| 1777863944 | 12.22° C | 62% | 1019.6 hPa | - | - | - | - |
| 1777863044 | 12.78° C | 60% | 1019.6 hPa | - | - | - | - |
* Rain since midnight (hover to see other rain measurements)
** Current wind speed in m/s (hover to see current wind gust speed)